sensor_id;sensor_type;location;lat;lon;timestamp;temperature;humidity
43963;DHT22;29622;45.534;9.242;2022-10-16T00:20:39;19.20;56.00
43963;DHT22;29622;45.534;9.242;2022-10-16T00:58:06;19.20;56.30
43963;DHT22;29622;45.534;9.242;2022-10-16T01:35:31;19.20;57.00
43963;DHT22;29622;45.534;9.242;2022-10-16T02:45:37;19.00;57.40
43963;DHT22;29622;45.534;9.242;2022-10-16T03:10:31;19.50;56.80
43963;DHT22;29622;45.534;9.242;2022-10-16T03:22:51;19.20;57.40
43963;DHT22;29622;45.534;9.242;2022-10-16T03:34:14;19.00;57.50
43963;DHT22;29622;45.534;9.242;2022-10-16T04:05:46;18.90;58.00
43963;DHT22;29622;45.534;9.242;2022-10-16T04:11:17;18.90;58.00
43963;DHT22;29622;45.534;9.242;2022-10-16T04:29:00;18.90;58.60
43963;DHT22;29622;45.534;9.242;2022-10-16T06:25:37;18.80;58.90
43963;DHT22;29622;45.534;9.242;2022-10-16T06:44:26;18.90;59.00
43963;DHT22;29622;45.534;9.242;2022-10-16T07:14:18;19.20;58.80
43963;DHT22;29622;45.534;9.242;2022-10-16T07:19:22;19.40;58.60
43963;DHT22;29622;45.534;9.242;2022-10-16T07:24:26;19.60;58.30
43963;DHT22;29622;45.534;9.242;2022-10-16T07:29:33;19.60;58.20
43963;DHT22;29622;45.534;9.242;2022-10-16T07:40:40;19.80;58.10
43963;DHT22;29622;45.534;9.242;2022-10-16T07:46:19;19.90;57.90
43963;DHT22;29622;45.534;9.242;2022-10-16T07:51:22;20.20;58.00
43963;DHT22;29622;45.534;9.242;2022-10-16T07:56:24;20.30;57.80
43963;DHT22;29622;45.534;9.242;2022-10-16T08:01:24;20.50;58.00
43963;DHT22;29622;45.534;9.242;2022-10-16T08:06:27;20.70;57.90
43963;DHT22;29622;45.534;9.242;2022-10-16T08:11:27;20.90;57.10
43963;DHT22;29622;45.534;9.242;2022-10-16T08:16:28;21.00;56.90
43963;DHT22;29622;45.534;9.242;2022-10-16T08:21:29;21.20;56.60
43963;DHT22;29622;45.534;9.242;2022-10-16T08:26:30;21.30;56.20
43963;DHT22;29622;45.534;9.242;2022-10-16T08:31:30;21.30;56.00
43963;DHT22;29622;45.534;9.242;2022-10-16T08:36:31;21.30;56.00
43963;DHT22;29622;45.534;9.242;2022-10-16T08:47:26;21.60;56.10
43963;DHT22;29622;45.534;9.242;2022-10-16T08:52:35;21.70;55.70
43963;DHT22;29622;45.534;9.242;2022-10-16T08:57:39;21.80;55.40
43963;DHT22;29622;45.534;9.242;2022-10-16T09:02:53;21.80;55.40
43963;DHT22;29622;45.534;9.242;2022-10-16T09:08:03;22.00;55.10
43963;DHT22;29622;45.534;9.242;2022-10-16T09:13:35;22.10;54.70
43963;DHT22;29622;45.534;9.242;2022-10-16T09:19:01;22.20;54.80
43963;DHT22;29622;45.534;9.242;2022-10-16T09:24:17;22.40;54.50
43963;DHT22;29622;45.534;9.242;2022-10-16T09:29:20;22.70;54.70
43963;DHT22;29622;45.534;9.242;2022-10-16T09:34:35;23.00;54.40
43963;DHT22;29622;45.534;9.242;2022-10-16T09:39:51;23.20;53.70
43963;DHT22;29622;45.534;9.242;2022-10-16T09:44:53;23.20;53.50
43963;DHT22;29622;45.534;9.242;2022-10-16T09:50:22;23.30;53.50
43963;DHT22;29622;45.534;9.242;2022-10-16T09:55:23;23.30;52.60
43963;DHT22;29622;45.534;9.242;2022-10-16T10:00:24;23.30;52.90
43963;DHT22;29622;45.534;9.242;2022-10-16T10:05:26;23.40;53.20
43963;DHT22;29622;45.534;9.242;2022-10-16T10:10:37;23.60;53.00
43963;DHT22;29622;45.534;9.242;2022-10-16T10:15:41;23.70;52.70
43963;DHT22;29622;45.534;9.242;2022-10-16T10:20:42;23.60;52.40
43963;DHT22;29622;45.534;9.242;2022-10-16T10:31:11;23.30;52.00
43963;DHT22;29622;45.534;9.242;2022-10-16T10:36:36;23.40;51.90
43963;DHT22;29622;45.534;9.242;2022-10-16T10:47:06;23.60;51.60
43963;DHT22;29622;45.534;9.242;2022-10-16T11:08:29;23.80;51.00
43963;DHT22;29622;45.534;9.242;2022-10-16T11:19:34;23.90;50.70
43963;DHT22;29622;45.534;9.242;2022-10-16T11:24:41;23.90;50.30
43963;DHT22;29622;45.534;9.242;2022-10-16T11:29:45;24.00;50.30
43963;DHT22;29622;45.534;9.242;2022-10-16T11:34:55;23.90;50.40
43963;DHT22;29622;45.534;9.242;2022-10-16T11:40:20;23.60;50.90
43963;DHT22;29622;45.534;9.242;2022-10-16T11:45:34;23.70;50.70
43963;DHT22;29622;45.534;9.242;2022-10-16T11:55:44;23.80;50.20
43963;DHT22;29622;45.534;9.242;2022-10-16T12:00:46;23.80;50.30
43963;DHT22;29622;45.534;9.242;2022-10-16T12:11:08;23.90;50.00
43963;DHT22;29622;45.534;9.242;2022-10-16T12:21:14;24.00;49.60
43963;DHT22;29622;45.534;9.242;2022-10-16T12:26:33;24.00;49.60
43963;DHT22;29622;45.534;9.242;2022-10-16T12:31:38;24.20;49.50
43963;DHT22;29622;45.534;9.242;2022-10-16T12:36:43;24.30;49.30
43963;DHT22;29622;45.534;9.242;2022-10-16T12:41:44;24.30;49.10
43963;DHT22;29622;45.534;9.242;2022-10-16T12:46:44;24.30;48.90
43963;DHT22;29622;45.534;9.242;2022-10-16T12:51:45;24.40;48.60
43963;DHT22;29622;45.534;9.242;2022-10-16T13:07:48;24.30;49.00
43963;DHT22;29622;45.534;9.242;2022-10-16T13:29:22;24.80;48.50
43963;DHT22;29622;45.534;9.242;2022-10-16T13:34:23;24.90;48.60
43963;DHT22;29622;45.534;9.242;2022-10-16T13:39:29;24.90;48.50
43963;DHT22;29622;45.534;9.242;2022-10-16T13:44:36;25.00;48.30
43963;DHT22;29622;45.534;9.242;2022-10-16T13:49:40;25.00;48.30
43963;DHT22;29622;45.534;9.242;2022-10-16T13:54:41;25.10;48.10
43963;DHT22;29622;45.534;9.242;2022-10-16T13:59:42;25.10;47.90
43963;DHT22;29622;45.534;9.242;2022-10-16T14:04:42;25.10;48.10
43963;DHT22;29622;45.534;9.242;2022-10-16T14:09:48;25.10;47.80
43963;DHT22;29622;45.534;9.242;2022-10-16T14:14:51;25.10;47.70
43963;DHT22;29622;45.534;9.242;2022-10-16T14:19:55;25.10;47.50
43963;DHT22;29622;45.534;9.242;2022-10-16T14:24:56;25.20;47.80
43963;DHT22;29622;45.534;9.242;2022-10-16T14:30:18;25.20;47.80
43963;DHT22;29622;45.534;9.242;2022-10-16T14:35:25;25.30;47.50
43963;DHT22;29622;45.534;9.242;2022-10-16T14:40:29;25.30;47.50
43963;DHT22;29622;45.534;9.242;2022-10-16T14:45:33;25.40;47.10
43963;DHT22;29622;45.534;9.242;2022-10-16T14:50:34;25.60;47.00
43963;DHT22;29622;45.534;9.242;2022-10-16T14:55:37;25.60;47.20
43963;DHT22;29622;45.534;9.242;2022-10-16T15:00:38;25.70;47.30
43963;DHT22;29622;45.534;9.242;2022-10-16T15:05:38;25.60;47.40
43963;DHT22;29622;45.534;9.242;2022-10-16T15:10:41;25.50;47.20
43963;DHT22;29622;45.534;9.242;2022-10-16T15:15:44;25.50;46.80
43963;DHT22;29622;45.534;9.242;2022-10-16T15:20:47;25.40;46.80
43963;DHT22;29622;45.534;9.242;2022-10-16T15:25:51;25.40;46.90
43963;DHT22;29622;45.534;9.242;2022-10-16T15:30:54;25.40;46.80
43963;DHT22;29622;45.534;9.242;2022-10-16T15:35:55;25.40;46.60
43963;DHT22;29622;45.534;9.242;2022-10-16T15:40:56;25.40;46.70
43963;DHT22;29622;45.534;9.242;2022-10-16T15:46:05;25.40;46.80
43963;DHT22;29622;45.534;9.242;2022-10-16T15:51:07;25.40;46.60
43963;DHT22;29622;45.534;9.242;2022-10-16T15:56:10;25.40;46.70
43963;DHT22;29622;45.534;9.242;2022-10-16T16:01:12;25.40;46.70
43963;DHT22;29622;45.534;9.242;2022-10-16T16:06:13;25.30;46.60
43963;DHT22;29622;45.534;9.242;2022-10-16T16:11:16;25.20;46.70
43963;DHT22;29622;45.534;9.242;2022-10-16T16:16:17;25.20;46.70
43963;DHT22;29622;45.534;9.242;2022-10-16T16:21:18;25.20;46.60
43963;DHT22;29622;45.534;9.242;2022-10-16T16:26:24;25.20;47.00
43963;DHT22;29622;45.534;9.242;2022-10-16T16:31:32;25.10;46.70
43963;DHT22;29622;45.534;9.242;2022-10-16T16:36:34;24.80;46.90
43963;DHT22;29622;45.534;9.242;2022-10-16T16:41:35;24.60;47.20
43963;DHT22;29622;45.534;9.242;2022-10-16T16:46:35;24.40;47.20
43963;DHT22;29622;45.534;9.242;2022-10-16T16:51:37;24.30;47.50
43963;DHT22;29622;45.534;9.242;2022-10-16T16:56:39;24.30;47.50
43963;DHT22;29622;45.534;9.242;2022-10-16T17:01:39;24.30;47.50
43963;DHT22;29622;45.534;9.242;2022-10-16T17:06:41;24.00;47.40
43963;DHT22;29622;45.534;9.242;2022-10-16T17:11:42;23.60;47.90
43963;DHT22;29622;45.534;9.242;2022-10-16T17:16:44;23.20;48.50
43963;DHT22;29622;45.534;9.242;2022-10-16T17:21:48;22.90;49.00
43963;DHT22;29622;45.534;9.242;2022-10-16T17:26:49;22.70;49.40
43963;DHT22;29622;45.534;9.242;2022-10-16T17:31:50;22.40;49.70
43963;DHT22;29622;45.534;9.242;2022-10-16T17:36:51;22.30;50.00
43963;DHT22;29622;45.534;9.242;2022-10-16T17:41:52;22.20;50.30
43963;DHT22;29622;45.534;9.242;2022-10-16T17:46:54;22.00;50.50
43963;DHT22;29622;45.534;9.242;2022-10-16T17:51:54;21.90;50.70
43963;DHT22;29622;45.534;9.242;2022-10-16T17:56:55;21.80;50.90
43963;DHT22;29622;45.534;9.242;2022-10-16T18:01:56;21.80;51.10
43963;DHT22;29622;45.534;9.242;2022-10-16T18:06:57;21.60;51.30
43963;DHT22;29622;45.534;9.242;2022-10-16T18:12:00;21.40;51.60
43963;DHT22;29622;45.534;9.242;2022-10-16T18:17:00;21.30;51.90
43963;DHT22;29622;45.534;9.242;2022-10-16T18:22:01;21.20;52.10
43963;DHT22;29622;45.534;9.242;2022-10-16T18:27:02;21.20;52.30
43963;DHT22;29622;45.534;9.242;2022-10-16T18:32:02;21.10;52.50
43963;DHT22;29622;45.534;9.242;2022-10-16T18:37:03;21.10;52.60
43963;DHT22;29622;45.534;9.242;2022-10-16T18:42:04;21.10;52.80
43963;DHT22;29622;45.534;9.242;2022-10-16T18:47:04;21.00;52.90
43963;DHT22;29622;45.534;9.242;2022-10-16T18:52:05;21.00;53.00
43963;DHT22;29622;45.534;9.242;2022-10-16T18:57:06;20.90;53.20
43963;DHT22;29622;45.534;9.242;2022-10-16T19:02:08;20.90;53.30
43963;DHT22;29622;45.534;9.242;2022-10-16T19:07:09;20.80;53.50
43963;DHT22;29622;45.534;9.242;2022-10-16T19:12:10;20.70;53.70
43963;DHT22;29622;45.534;9.242;2022-10-16T19:17:11;20.70;53.80
43963;DHT22;29622;45.534;9.242;2022-10-16T19:22:11;20.60;54.00
43963;DHT22;29622;45.534;9.242;2022-10-16T19:27:26;20.60;54.20
43963;DHT22;29622;45.534;9.242;2022-10-16T19:32:27;20.50;54.30
43963;DHT22;29622;45.534;9.242;2022-10-16T19:37:28;20.50;54.50
43963;DHT22;29622;45.534;9.242;2022-10-16T19:42:28;20.40;54.60
43963;DHT22;29622;45.534;9.242;2022-10-16T19:53:18;20.30;55.00
43963;DHT22;29622;45.534;9.242;2022-10-16T19:58:27;20.20;55.00
43963;DHT22;29622;45.534;9.242;2022-10-16T20:04:23;20.20;55.20
43963;DHT22;29622;45.534;9.242;2022-10-16T20:09:45;20.10;55.50
43963;DHT22;29622;45.534;9.242;2022-10-16T20:15:02;20.10;55.40
43963;DHT22;29622;45.534;9.242;2022-10-16T20:20:43;20.00;55.70
43963;DHT22;29622;45.534;9.242;2022-10-16T20:26:14;19.90;55.60
43963;DHT22;29622;45.534;9.242;2022-10-16T20:31:43;19.90;55.90
43963;DHT22;29622;45.534;9.242;2022-10-16T20:54:09;19.70;56.80
43963;DHT22;29622;45.534;9.242;2022-10-16T20:59:36;19.60;56.40
43963;DHT22;29622;45.534;9.242;2022-10-16T21:35:20;19.20;57.60
43963;DHT22;29622;45.534;9.242;2022-10-16T21:40:59;19.10;57.50
43963;DHT22;29622;45.534;9.242;2022-10-16T21:52:05;19.10;58.00
43963;DHT22;29622;45.534;9.242;2022-10-16T21:57:38;19.00;57.90
43963;DHT22;29622;45.534;9.242;2022-10-16T22:09:45;19.00;58.30
43963;DHT22;29622;45.534;9.242;2022-10-16T22:15:28;18.90;58.30
43963;DHT22;29622;45.534;9.242;2022-10-16T22:53:37;18.50;59.30
43963;DHT22;29622;45.534;9.242;2022-10-16T22:58:59;18.40;59.10
43963;DHT22;29622;45.534;9.242;2022-10-16T23:18:23;18.30;59.80
43963;DHT22;29622;45.534;9.242;2022-10-16T23:23:58;18.30;59.70
43963;DHT22;29622;45.534;9.242;2022-10-16T23:36:49;18.30;60.00
43963;DHT22;29622;45.534;9.242;2022-10-16T23:56:15;18.10;60.00
